sensor_id;sensor_type;location;lat;lon;timestamp;temperature;humidity
4354;DHT22;11018;51.258;6.806;2023-04-25T00:00:24;7.60;63.40
4354;DHT22;11018;51.258;6.806;2023-04-25T00:02:50;7.70;61.90
4354;DHT22;11018;51.258;6.806;2023-04-25T00:05:17;7.60;62.40
4354;DHT22;11018;51.258;6.806;2023-04-25T00:07:42;7.80;61.50
4354;DHT22;11018;51.258;6.806;2023-04-25T00:10:09;7.90;59.40
4354;DHT22;11018;51.258;6.806;2023-04-25T00:12:36;7.90;59.40
4354;DHT22;11018;51.258;6.806;2023-04-25T00:15:02;8.00;58.60
4354;DHT22;11018;51.258;6.806;2023-04-25T00:17:28;8.00;58.30
4354;DHT22;11018;51.258;6.806;2023-04-25T00:19:53;8.00;58.70
4354;DHT22;11018;51.258;6.806;2023-04-25T00:22:20;8.00;58.50
4354;DHT22;11018;51.258;6.806;2023-04-25T00:24:45;8.10;57.80
4354;DHT22;11018;51.258;6.806;2023-04-25T00:27:11;8.10;57.70
4354;DHT22;11018;51.258;6.806;2023-04-25T00:29:37;8.10;57.30
4354;DHT22;11018;51.258;6.806;2023-04-25T00:32:02;8.10;57.40
4354;DHT22;11018;51.258;6.806;2023-04-25T00:34:28;8.20;57.20
4354;DHT22;11018;51.258;6.806;2023-04-25T00:36:53;8.20;57.30
4354;DHT22;11018;51.258;6.806;2023-04-25T00:39:19;8.20;57.30
4354;DHT22;11018;51.258;6.806;2023-04-25T00:41:45;8.20;57.60
4354;DHT22;11018;51.258;6.806;2023-04-25T00:44:11;8.20;57.70
4354;DHT22;11018;51.258;6.806;2023-04-25T00:46:38;8.20;57.50
4354;DHT22;11018;51.258;6.806;2023-04-25T00:49:05;8.20;57.30
4354;DHT22;11018;51.258;6.806;2023-04-25T00:51:31;8.20;57.30
4354;DHT22;11018;51.258;6.806;2023-04-25T00:53:58;8.20;57.10
4354;DHT22;11018;51.258;6.806;2023-04-25T00:56:24;8.20;57.60
4354;DHT22;11018;51.258;6.806;2023-04-25T00:58:53;8.20;58.00
4354;DHT22;11018;51.258;6.806;2023-04-25T01:01:21;8.20;58.30
4354;DHT22;11018;51.258;6.806;2023-04-25T01:03:47;8.20;58.00
4354;DHT22;11018;51.258;6.806;2023-04-25T01:06:12;8.10;58.40
4354;DHT22;11018;51.258;6.806;2023-04-25T01:08:39;8.10;57.90
4354;DHT22;11018;51.258;6.806;2023-04-25T01:11:05;8.10;59.30
4354;DHT22;11018;51.258;6.806;2023-04-25T01:13:31;8.10;58.60
4354;DHT22;11018;51.258;6.806;2023-04-25T01:15:58;8.10;58.60
4354;DHT22;11018;51.258;6.806;2023-04-25T01:18:24;8.10;59.20
4354;DHT22;11018;51.258;6.806;2023-04-25T01:20:52;8.20;58.20
4354;DHT22;11018;51.258;6.806;2023-04-25T01:23:20;8.20;58.00
4354;DHT22;11018;51.258;6.806;2023-04-25T01:25:46;8.20;57.50
4354;DHT22;11018;51.258;6.806;2023-04-25T01:28:12;8.10;58.50
4354;DHT22;11018;51.258;6.806;2023-04-25T01:30:38;8.10;59.70
4354;DHT22;11018;51.258;6.806;2023-04-25T01:33:04;8.10;60.20
4354;DHT22;11018;51.258;6.806;2023-04-25T01:35:31;8.10;60.20
4354;DHT22;11018;51.258;6.806;2023-04-25T01:37:57;8.10;60.00
4354;DHT22;11018;51.258;6.806;2023-04-25T01:40:24;8.10;60.50
4354;DHT22;11018;51.258;6.806;2023-04-25T01:42:50;8.10;60.30
4354;DHT22;11018;51.258;6.806;2023-04-25T01:45:16;8.10;60.10
4354;DHT22;11018;51.258;6.806;2023-04-25T01:47:43;8.10;61.30
4354;DHT22;11018;51.258;6.806;2023-04-25T01:50:10;8.10;60.70
4354;DHT22;11018;51.258;6.806;2023-04-25T01:52:36;8.10;61.20
4354;DHT22;11018;51.258;6.806;2023-04-25T01:55:02;8.10;62.10
4354;DHT22;11018;51.258;6.806;2023-04-25T01:57:28;8.10;62.60
4354;DHT22;11018;51.258;6.806;2023-04-25T02:00:01;8.10;61.70
4354;DHT22;11018;51.258;6.806;2023-04-25T02:02:28;8.00;61.90
4354;DHT22;11018;51.258;6.806;2023-04-25T02:04:53;7.90;63.70
4354;DHT22;11018;51.258;6.806;2023-04-25T02:07:20;7.90;65.80
4354;DHT22;11018;51.258;6.806;2023-04-25T02:09:46;7.90;66.10
4354;DHT22;11018;51.258;6.806;2023-04-25T02:12:11;7.90;65.30
4354;DHT22;11018;51.258;6.806;2023-04-25T02:14:37;7.90;65.00
4354;DHT22;11018;51.258;6.806;2023-04-25T02:17:02;7.90;64.70
4354;DHT22;11018;51.258;6.806;2023-04-25T02:19:28;7.90;66.40
4354;DHT22;11018;51.258;6.806;2023-04-25T02:21:54;7.90;65.60
4354;DHT22;11018;51.258;6.806;2023-04-25T02:24:20;7.80;65.90
4354;DHT22;11018;51.258;6.806;2023-04-25T02:26:45;7.80;66.80
4354;DHT22;11018;51.258;6.806;2023-04-25T02:29:12;8.00;63.20
4354;DHT22;11018;51.258;6.806;2023-04-25T02:31:38;8.00;62.60
4354;DHT22;11018;51.258;6.806;2023-04-25T02:34:03;8.00;63.60
4354;DHT22;11018;51.258;6.806;2023-04-25T02:36:29;7.90;61.80
4354;DHT22;11018;51.258;6.806;2023-04-25T02:38:57;7.90;62.00
4354;DHT22;11018;51.258;6.806;2023-04-25T02:41:23;7.80;62.50
4354;DHT22;11018;51.258;6.806;2023-04-25T02:43:48;7.70;62.80
4354;DHT22;11018;51.258;6.806;2023-04-25T02:46:14;7.70;63.90
4354;DHT22;11018;51.258;6.806;2023-04-25T02:48:40;7.60;64.60
4354;DHT22;11018;51.258;6.806;2023-04-25T02:51:05;7.50;64.90
4354;DHT22;11018;51.258;6.806;2023-04-25T02:53:31;7.50;66.70
4354;DHT22;11018;51.258;6.806;2023-04-25T02:55:56;7.40;67.70
4354;DHT22;11018;51.258;6.806;2023-04-25T02:58:23;7.40;68.10
4354;DHT22;11018;51.258;6.806;2023-04-25T03:00:49;7.40;68.70
4354;DHT22;11018;51.258;6.806;2023-04-25T03:03:14;7.40;69.30
4354;DHT22;11018;51.258;6.806;2023-04-25T03:05:45;7.30;70.90
4354;DHT22;11018;51.258;6.806;2023-04-25T03:08:12;7.30;71.90
4354;DHT22;11018;51.258;6.806;2023-04-25T03:10:38;7.20;72.80
4354;DHT22;11018;51.258;6.806;2023-04-25T03:13:04;7.20;73.70
4354;DHT22;11018;51.258;6.806;2023-04-25T03:15:29;7.10;74.80
4354;DHT22;11018;51.258;6.806;2023-04-25T03:17:56;7.10;75.90
4354;DHT22;11018;51.258;6.806;2023-04-25T03:20:22;7.10;76.70
4354;DHT22;11018;51.258;6.806;2023-04-25T03:22:47;7.00;77.10
4354;DHT22;11018;51.258;6.806;2023-04-25T03:25:13;7.00;77.40
4354;DHT22;11018;51.258;6.806;2023-04-25T03:27:38;7.00;77.60
4354;DHT22;11018;51.258;6.806;2023-04-25T03:30:04;7.00;78.30
4354;DHT22;11018;51.258;6.806;2023-04-25T03:32:30;6.90;78.60
4354;DHT22;11018;51.258;6.806;2023-04-25T03:34:56;6.90;79.30
4354;DHT22;11018;51.258;6.806;2023-04-25T03:37:21;6.90;80.20
4354;DHT22;11018;51.258;6.806;2023-04-25T03:39:47;6.90;80.50
4354;DHT22;11018;51.258;6.806;2023-04-25T03:42:12;6.90;81.00
4354;DHT22;11018;51.258;6.806;2023-04-25T03:44:38;7.00;81.20
4354;DHT22;11018;51.258;6.806;2023-04-25T03:47:03;7.00;81.00
4354;DHT22;11018;51.258;6.806;2023-04-25T03:49:29;6.90;81.70
4354;DHT22;11018;51.258;6.806;2023-04-25T03:51:55;6.90;82.30
4354;DHT22;11018;51.258;6.806;2023-04-25T03:54:20;6.90;82.40
4354;DHT22;11018;51.258;6.806;2023-04-25T03:56:46;6.80;83.40
4354;DHT22;11018;51.258;6.806;2023-04-25T03:59:11;6.80;84.60
4354;DHT22;11018;51.258;6.806;2023-04-25T04:01:37;6.70;85.60
4354;DHT22;11018;51.258;6.806;2023-04-25T04:04:02;6.70;86.50
4354;DHT22;11018;51.258;6.806;2023-04-25T04:06:28;6.70;85.60
4354;DHT22;11018;51.258;6.806;2023-04-25T04:08:54;6.70;86.40
4354;DHT22;11018;51.258;6.806;2023-04-25T04:11:20;6.70;86.80
4354;DHT22;11018;51.258;6.806;2023-04-25T04:13:45;6.60;86.80
4354;DHT22;11018;51.258;6.806;2023-04-25T04:16:11;6.60;87.20
4354;DHT22;11018;51.258;6.806;2023-04-25T04:18:37;6.70;87.20
4354;DHT22;11018;51.258;6.806;2023-04-25T04:21:02;6.70;86.80
4354;DHT22;11018;51.258;6.806;2023-04-25T04:23:28;6.70;86.40
4354;DHT22;11018;51.258;6.806;2023-04-25T04:25:54;6.80;84.60
4354;DHT22;11018;51.258;6.806;2023-04-25T04:28:20;6.80;84.20
4354;DHT22;11018;51.258;6.806;2023-04-25T04:30:47;6.80;83.30
4354;DHT22;11018;51.258;6.806;2023-04-25T04:33:13;6.80;83.10
4354;DHT22;11018;51.258;6.806;2023-04-25T04:35:40;6.80;83.70
4354;DHT22;11018;51.258;6.806;2023-04-25T04:38:06;6.80;83.80
4354;DHT22;11018;51.258;6.806;2023-04-25T04:40:32;6.70;83.90
4354;DHT22;11018;51.258;6.806;2023-04-25T04:42:58;6.70;84.60
4354;DHT22;11018;51.258;6.806;2023-04-25T04:45:23;6.70;85.00
4354;DHT22;11018;51.258;6.806;2023-04-25T04:47:49;6.70;85.10
4354;DHT22;11018;51.258;6.806;2023-04-25T04:50:15;6.70;84.50
4354;DHT22;11018;51.258;6.806;2023-04-25T04:52:41;6.70;83.90
4354;DHT22;11018;51.258;6.806;2023-04-25T04:55:07;6.70;83.90
4354;DHT22;11018;51.258;6.806;2023-04-25T04:57:34;6.70;83.80
4354;DHT22;11018;51.258;6.806;2023-04-25T05:00:00;6.80;83.40
4354;DHT22;11018;51.258;6.806;2023-04-25T05:02:26;6.80;82.30
4354;DHT22;11018;51.258;6.806;2023-04-25T05:04:52;6.80;82.60
4354;DHT22;11018;51.258;6.806;2023-04-25T05:07:18;6.80;82.00
4354;DHT22;11018;51.258;6.806;2023-04-25T05:09:44;6.80;81.90
4354;DHT22;11018;51.258;6.806;2023-04-25T05:12:10;6.80;81.90
4354;DHT22;11018;51.258;6.806;2023-04-25T05:14:45;6.80;80.70
4354;DHT22;11018;51.258;6.806;2023-04-25T05:17:12;6.80;80.20
4354;DHT22;11018;51.258;6.806;2023-04-25T05:19:38;6.80;81.20
4354;DHT22;11018;51.258;6.806;2023-04-25T05:22:04;6.90;79.20
4354;DHT22;11018;51.258;6.806;2023-04-25T05:24:30;7.00;77.70
4354;DHT22;11018;51.258;6.806;2023-04-25T05:26:56;7.00;76.20
4354;DHT22;11018;51.258;6.806;2023-04-25T05:29:22;7.00;76.20
4354;DHT22;11018;51.258;6.806;2023-04-25T05:31:47;7.00;77.10
4354;DHT22;11018;51.258;6.806;2023-04-25T05:34:13;7.00;76.90
4354;DHT22;11018;51.258;6.806;2023-04-25T05:36:39;7.00;75.50
4354;DHT22;11018;51.258;6.806;2023-04-25T05:39:04;7.00;73.50
4354;DHT22;11018;51.258;6.806;2023-04-25T05:41:31;6.90;74.70
4354;DHT22;11018;51.258;6.806;2023-04-25T05:43:57;6.90;75.00
4354;DHT22;11018;51.258;6.806;2023-04-25T05:46:22;6.90;73.20
4354;DHT22;11018;51.258;6.806;2023-04-25T05:48:48;7.00;73.20
4354;DHT22;11018;51.258;6.806;2023-04-25T05:51:13;7.10;71.70
4354;DHT22;11018;51.258;6.806;2023-04-25T05:53:39;7.40;70.60
4354;DHT22;11018;51.258;6.806;2023-04-25T05:56:05;7.50;65.80
4354;DHT22;11018;51.258;6.806;2023-04-25T05:58:30;7.60;63.50
4354;DHT22;11018;51.258;6.806;2023-04-25T06:00:56;7.70;61.20
4354;DHT22;11018;51.258;6.806;2023-04-25T06:03:21;7.90;60.90
4354;DHT22;11018;51.258;6.806;2023-04-25T06:05:47;7.90;58.10
4354;DHT22;11018;51.258;6.806;2023-04-25T06:08:13;7.90;58.20
4354;DHT22;11018;51.258;6.806;2023-04-25T06:10:39;7.90;57.70
4354;DHT22;11018;51.258;6.806;2023-04-25T06:13:04;8.00;55.90
4354;DHT22;11018;51.258;6.806;2023-04-25T06:15:30;8.10;56.60
4354;DHT22;11018;51.258;6.806;2023-04-25T06:17:57;8.00;55.30
4354;DHT22;11018;51.258;6.806;2023-04-25T06:20:23;8.10;54.80
4354;DHT22;11018;51.258;6.806;2023-04-25T06:22:50;8.20;52.50
4354;DHT22;11018;51.258;6.806;2023-04-25T06:25:17;8.10;52.90
4354;DHT22;11018;51.258;6.806;2023-04-25T06:27:42;8.00;53.50
4354;DHT22;11018;51.258;6.806;2023-04-25T06:30:08;8.10;53.70
4354;DHT22;11018;51.258;6.806;2023-04-25T06:32:35;8.10;53.60
4354;DHT22;11018;51.258;6.806;2023-04-25T06:35:00;8.10;53.60
4354;DHT22;11018;51.258;6.806;2023-04-25T06:37:26;8.10;50.90
4354;DHT22;11018;51.258;6.806;2023-04-25T06:39:52;7.90;52.00
4354;DHT22;11018;51.258;6.806;2023-04-25T06:42:17;7.80;54.40
4354;DHT22;11018;51.258;6.806;2023-04-25T06:44:43;7.90;52.90
4354;DHT22;11018;51.258;6.806;2023-04-25T06:47:08;7.90;51.90
4354;DHT22;11018;51.258;6.806;2023-04-25T06:49:34;8.10;52.20
4354;DHT22;11018;51.258;6.806;2023-04-25T06:52:00;8.10;50.00
4354;DHT22;11018;51.258;6.806;2023-04-25T06:54:25;8.10;49.00
4354;DHT22;11018;51.258;6.806;2023-04-25T06:56:53;8.00;49.80
4354;DHT22;11018;51.258;6.806;2023-04-25T06:59:18;7.90;48.90
4354;DHT22;11018;51.258;6.806;2023-04-25T07:01:44;7.90;50.60
4354;DHT22;11018;51.258;6.806;2023-04-25T07:04:10;7.80;49.70
4354;DHT22;11018;51.258;6.806;2023-04-25T07:06:36;7.90;50.00
4354;DHT22;11018;51.258;6.806;2023-04-25T07:09:10;7.90;50.40
4354;DHT22;11018;51.258;6.806;2023-04-25T07:11:36;8.10;48.70
4354;DHT22;11018;51.258;6.806;2023-04-25T07:14:02;8.20;50.00
4354;DHT22;11018;51.258;6.806;2023-04-25T07:16:28;8.30;49.20
4354;DHT22;11018;51.258;6.806;2023-04-25T07:18:54;8.50;46.90
4354;DHT22;11018;51.258;6.806;2023-04-25T07:21:19;8.50;42.40
4354;DHT22;11018;51.258;6.806;2023-04-25T07:23:45;8.60;41.40
4354;DHT22;11018;51.258;6.806;2023-04-25T07:26:11;8.90;39.40
4354;DHT22;11018;51.258;6.806;2023-04-25T07:28:36;8.80;38.90
4354;DHT22;11018;51.258;6.806;2023-04-25T07:31:02;8.80;39.20
4354;DHT22;11018;51.258;6.806;2023-04-25T07:33:28;9.10;39.30
4354;DHT22;11018;51.258;6.806;2023-04-25T07:35:54;9.30;38.00
4354;DHT22;11018;51.258;6.806;2023-04-25T07:38:21;9.50;39.50
4354;DHT22;11018;51.258;6.806;2023-04-25T07:40:48;9.30;37.60
4354;DHT22;11018;51.258;6.806;2023-04-25T07:43:13;8.90;38.80
4354;DHT22;11018;51.258;6.806;2023-04-25T07:45:42;8.80;40.00
4354;DHT22;11018;51.258;6.806;2023-04-25T07:48:08;8.80;40.80
4354;DHT22;11018;51.258;6.806;2023-04-25T07:50:33;8.80;40.30
4354;DHT22;11018;51.258;6.806;2023-04-25T07:52:59;8.80;37.70
4354;DHT22;11018;51.258;6.806;2023-04-25T07:55:24;8.70;36.80
4354;DHT22;11018;51.258;6.806;2023-04-25T07:57:50;8.70;36.70
4354;DHT22;11018;51.258;6.806;2023-04-25T08:00:16;8.70;36.50
4354;DHT22;11018;51.258;6.806;2023-04-25T08:02:41;8.80;35.90
4354;DHT22;11018;51.258;6.806;2023-04-25T08:05:07;8.80;35.50
4354;DHT22;11018;51.258;6.806;2023-04-25T08:07:37;9.00;33.20
4354;DHT22;11018;51.258;6.806;2023-04-25T08:10:03;9.40;33.90
4354;DHT22;11018;51.258;6.806;2023-04-25T08:12:29;9.70;31.50
4354;DHT22;11018;51.258;6.806;2023-04-25T08:14:54;10.00;28.70
4354;DHT22;11018;51.258;6.806;2023-04-25T08:17:20;10.00;26.80
4354;DHT22;11018;51.258;6.806;2023-04-25T08:19:45;9.80;28.70
4354;DHT22;11018;51.258;6.806;2023-04-25T08:22:11;9.60;28.20
4354;DHT22;11018;51.258;6.806;2023-04-25T08:24:38;9.50;27.30
4354;DHT22;11018;51.258;6.806;2023-04-25T08:27:03;9.50;28.50
4354;DHT22;11018;51.258;6.806;2023-04-25T08:29:29;9.50;29.10
4354;DHT22;11018;51.258;6.806;2023-04-25T08:31:54;9.80;28.90
4354;DHT22;11018;51.258;6.806;2023-04-25T08:34:20;10.10;28.00
4354;DHT22;11018;51.258;6.806;2023-04-25T08:36:46;10.50;27.40
4354;DHT22;11018;51.258;6.806;2023-04-25T08:39:11;10.60;24.90
4354;DHT22;11018;51.258;6.806;2023-04-25T08:41:37;10.60;25.80
4354;DHT22;11018;51.258;6.806;2023-04-25T08:44:03;10.20;23.80
4354;DHT22;11018;51.258;6.806;2023-04-25T08:46:30;10.00;26.10
4354;DHT22;11018;51.258;6.806;2023-04-25T08:49:00;9.90;27.20
4354;DHT22;11018;51.258;6.806;2023-04-25T08:51:27;9.90;27.30
4354;DHT22;11018;51.258;6.806;2023-04-25T08:53:56;10.10;27.40
4354;DHT22;11018;51.258;6.806;2023-04-25T08:56:28;10.30;22.30
4354;DHT22;11018;51.258;6.806;2023-04-25T08:58:54;10.20;21.50
4354;DHT22;11018;51.258;6.806;2023-04-25T09:01:21;10.00;21.70
4354;DHT22;11018;51.258;6.806;2023-04-25T09:03:49;10.20;22.50
4354;DHT22;11018;51.258;6.806;2023-04-25T09:06:14;10.50;20.30
4354;DHT22;11018;51.258;6.806;2023-04-25T09:08:41;10.90;20.30
4354;DHT22;11018;51.258;6.806;2023-04-25T09:11:07;10.90;18.60
4354;DHT22;11018;51.258;6.806;2023-04-25T09:13:33;11.30;20.00
4354;DHT22;11018;51.258;6.806;2023-04-25T09:15:58;11.40;19.90
4354;DHT22;11018;51.258;6.806;2023-04-25T09:18:28;11.60;18.90
4354;DHT22;11018;51.258;6.806;2023-04-25T09:21:11;11.20;18.80
4354;DHT22;11018;51.258;6.806;2023-04-25T09:23:44;10.60;20.00
4354;DHT22;11018;51.258;6.806;2023-04-25T09:26:14;10.60;21.60
4354;DHT22;11018;51.258;6.806;2023-04-25T09:28:40;10.40;21.50
4354;DHT22;11018;51.258;6.806;2023-04-25T09:31:10;10.50;23.20
4354;DHT22;11018;51.258;6.806;2023-04-25T09:33:37;10.60;21.50
4354;DHT22;11018;51.258;6.806;2023-04-25T09:36:03;10.70;21.20
4354;DHT22;11018;51.258;6.806;2023-04-25T09:38:31;10.80;19.90
4354;DHT22;11018;51.258;6.806;2023-04-25T09:40:57;10.70;20.20
4354;DHT22;11018;51.258;6.806;2023-04-25T09:43:23;10.90;19.40
4354;DHT22;11018;51.258;6.806;2023-04-25T09:45:50;11.00;19.00
4354;DHT22;11018;51.258;6.806;2023-04-25T09:48:18;10.90;19.80
4354;DHT22;11018;51.258;6.806;2023-04-25T09:50:44;11.30;20.00
4354;DHT22;11018;51.258;6.806;2023-04-25T09:53:10;11.50;18.90
4354;DHT22;11018;51.258;6.806;2023-04-25T09:55:36;11.50;19.10
4354;DHT22;11018;51.258;6.806;2023-04-25T09:58:06;11.70;18.50
4354;DHT22;11018;51.258;6.806;2023-04-25T10:00:34;11.50;15.20
4354;DHT22;11018;51.258;6.806;2023-04-25T10:03:05;11.30;16.90
4354;DHT22;11018;51.258;6.806;2023-04-25T10:05:32;11.60;17.10
4354;DHT22;11018;51.258;6.806;2023-04-25T10:08:02;11.30;16.40
4354;DHT22;11018;51.258;6.806;2023-04-25T10:10:30;11.60;16.20
4354;DHT22;11018;51.258;6.806;2023-04-25T10:12:58;12.00;15.10
4354;DHT22;11018;51.258;6.806;2023-04-25T10:15:24;11.30;15.60
4354;DHT22;11018;51.258;6.806;2023-04-25T10:17:50;10.90;14.20
4354;DHT22;11018;51.258;6.806;2023-04-25T10:20:16;11.00;15.90
4354;DHT22;11018;51.258;6.806;2023-04-25T10:22:44;11.20;14.50
4354;DHT22;11018;51.258;6.806;2023-04-25T10:25:11;11.40;14.30
4354;DHT22;11018;51.258;6.806;2023-04-25T10:27:38;11.20;15.10
4354;DHT22;11018;51.258;6.806;2023-04-25T10:30:13;11.10;14.60
4354;DHT22;11018;51.258;6.806;2023-04-25T10:32:42;11.00;14.70
4354;DHT22;11018;51.258;6.806;2023-04-25T10:35:16;11.00;15.70
4354;DHT22;11018;51.258;6.806;2023-04-25T10:38:10;11.40;15.40
4354;DHT22;11018;51.258;6.806;2023-04-25T10:40:37;11.40;14.40
4354;DHT22;11018;51.258;6.806;2023-04-25T10:45:59;11.30;14.90
4354;DHT22;11018;51.258;6.806;2023-04-25T10:48:26;11.30;13.40
4354;DHT22;11018;51.258;6.806;2023-04-25T10:51:10;11.50;14.20
4354;DHT22;11018;51.258;6.806;2023-04-25T10:53:36;11.70;14.50
4354;DHT22;11018;51.258;6.806;2023-04-25T10:56:16;12.00;14.20
4354;DHT22;11018;51.258;6.806;2023-04-25T10:58:43;12.70;12.30
4354;DHT22;11018;51.258;6.806;2023-04-25T11:01:09;12.50;12.20
4354;DHT22;11018;51.258;6.806;2023-04-25T11:03:41;12.10;12.10
4354;DHT22;11018;51.258;6.806;2023-04-25T11:06:20;12.00;12.30
4354;DHT22;11018;51.258;6.806;2023-04-25T11:08:49;12.10;12.50
4354;DHT22;11018;51.258;6.806;2023-04-25T11:11:17;11.90;12.50
4354;DHT22;11018;51.258;6.806;2023-04-25T11:13:43;11.30;13.80
4354;DHT22;11018;51.258;6.806;2023-04-25T11:16:09;11.30;14.60
4354;DHT22;11018;51.258;6.806;2023-04-25T11:18:35;11.20;14.60
4354;DHT22;11018;51.258;6.806;2023-04-25T11:21:02;11.60;14.60
4354;DHT22;11018;51.258;6.806;2023-04-25T11:23:28;11.90;15.00
4354;DHT22;11018;51.258;6.806;2023-04-25T11:25:55;11.90;14.70
4354;DHT22;11018;51.258;6.806;2023-04-25T11:28:21;11.90;12.80
4354;DHT22;11018;51.258;6.806;2023-04-25T11:30:49;11.50;13.90
4354;DHT22;11018;51.258;6.806;2023-04-25T11:33:16;11.80;14.20
4354;DHT22;11018;51.258;6.806;2023-04-25T11:35:41;11.90;12.10
4354;DHT22;11018;51.258;6.806;2023-04-25T11:38:07;12.10;13.40
4354;DHT22;11018;51.258;6.806;2023-04-25T11:40:32;12.40;12.30
4354;DHT22;11018;51.258;6.806;2023-04-25T11:43:00;12.00;11.90
4354;DHT22;11018;51.258;6.806;2023-04-25T11:45:26;11.60;13.60
4354;DHT22;11018;51.258;6.806;2023-04-25T11:47:52;11.90;14.20
4354;DHT22;11018;51.258;6.806;2023-04-25T11:50:18;12.00;13.30
4354;DHT22;11018;51.258;6.806;2023-04-25T11:52:47;12.40;13.60
4354;DHT22;11018;51.258;6.806;2023-04-25T11:55:15;12.50;13.20
4354;DHT22;11018;51.258;6.806;2023-04-25T11:57:42;12.20;14.00
4354;DHT22;11018;51.258;6.806;2023-04-25T12:00:13;11.90;16.10
4354;DHT22;11018;51.258;6.806;2023-04-25T12:02:41;11.80;17.30
4354;DHT22;11018;51.258;6.806;2023-04-25T12:05:08;11.80;17.40
4354;DHT22;11018;51.258;6.806;2023-04-25T12:07:35;11.70;17.80
4354;DHT22;11018;51.258;6.806;2023-04-25T12:10:13;11.90;18.30
4354;DHT22;11018;51.258;6.806;2023-04-25T12:12:42;11.40;19.60
4354;DHT22;11018;51.258;6.806;2023-04-25T12:15:28;11.00;20.00
4354;DHT22;11018;51.258;6.806;2023-04-25T12:17:54;10.90;22.50
4354;DHT22;11018;51.258;6.806;2023-04-25T12:20:25;10.60;22.50
4354;DHT22;11018;51.258;6.806;2023-04-25T12:22:51;10.50;23.50
4354;DHT22;11018;51.258;6.806;2023-04-25T12:25:39;10.00;45.60
4354;DHT22;11018;51.258;6.806;2023-04-25T12:33:23;9.60;48.90
4354;DHT22;11018;51.258;6.806;2023-04-25T12:35:48;10.20;47.90
4354;DHT22;11018;51.258;6.806;2023-04-25T12:38:26;10.40;42.70
4354;DHT22;11018;51.258;6.806;2023-04-25T12:40:52;10.50;37.20
4354;DHT22;11018;51.258;6.806;2023-04-25T12:43:18;10.70;35.80
4354;DHT22;11018;51.258;6.806;2023-04-25T12:45:44;10.70;31.90
4354;DHT22;11018;51.258;6.806;2023-04-25T12:48:12;10.70;31.50
4354;DHT22;11018;51.258;6.806;2023-04-25T12:50:37;10.80;31.10
4354;DHT22;11018;51.258;6.806;2023-04-25T12:53:03;11.10;28.80
4354;DHT22;11018;51.258;6.806;2023-04-25T12:55:29;11.40;27.70
4354;DHT22;11018;51.258;6.806;2023-04-25T12:57:55;11.70;24.90
4354;DHT22;11018;51.258;6.806;2023-04-25T13:00:20;12.00;23.60
4354;DHT22;11018;51.258;6.806;2023-04-25T13:02:46;11.80;20.00
4354;DHT22;11018;51.258;6.806;2023-04-25T13:05:12;11.70;18.90
4354;DHT22;11018;51.258;6.806;2023-04-25T13:07:38;11.80;18.50
4354;DHT22;11018;51.258;6.806;2023-04-25T13:10:04;11.80;19.00
4354;DHT22;11018;51.258;6.806;2023-04-25T13:12:31;11.90;18.80
4354;DHT22;11018;51.258;6.806;2023-04-25T13:14:57;11.80;18.80
4354;DHT22;11018;51.258;6.806;2023-04-25T13:17:22;11.90;18.90
4354;DHT22;11018;51.258;6.806;2023-04-25T13:19:48;11.70;19.30
4354;DHT22;11018;51.258;6.806;2023-04-25T13:22:13;11.80;17.60
4354;DHT22;11018;51.258;6.806;2023-04-25T13:24:40;11.70;18.50
4354;DHT22;11018;51.258;6.806;2023-04-25T13:27:06;11.70;19.30
4354;DHT22;11018;51.258;6.806;2023-04-25T13:29:31;11.90;19.10
4354;DHT22;11018;51.258;6.806;2023-04-25T13:32:00;12.60;18.00
4354;DHT22;11018;51.258;6.806;2023-04-25T13:34:26;13.30;16.70
4354;DHT22;11018;51.258;6.806;2023-04-25T13:36:51;14.00;14.40
4354;DHT22;11018;51.258;6.806;2023-04-25T13:39:17;14.50;13.40
4354;DHT22;11018;51.258;6.806;2023-04-25T13:41:43;14.90;12.70
4354;DHT22;11018;51.258;6.806;2023-04-25T13:44:08;15.10;11.70
4354;DHT22;11018;51.258;6.806;2023-04-25T13:46:34;14.60;12.30
4354;DHT22;11018;51.258;6.806;2023-04-25T13:48:59;14.30;13.10
4354;DHT22;11018;51.258;6.806;2023-04-25T13:51:26;14.30;13.10
4354;DHT22;11018;51.258;6.806;2023-04-25T13:53:52;14.40;10.50
4354;DHT22;11018;51.258;6.806;2023-04-25T13:56:18;14.00;10.70
4354;DHT22;11018;51.258;6.806;2023-04-25T13:58:45;14.20;10.30
4354;DHT22;11018;51.258;6.806;2023-04-25T14:01:10;14.40;9.60
4354;DHT22;11018;51.258;6.806;2023-04-25T14:03:36;14.70;8.90
4354;DHT22;11018;51.258;6.806;2023-04-25T14:06:02;15.50;9.70
4354;DHT22;11018;51.258;6.806;2023-04-25T14:08:27;14.60;12.10
4354;DHT22;11018;51.258;6.806;2023-04-25T14:10:54;13.60;14.30
4354;DHT22;11018;51.258;6.806;2023-04-25T14:13:20;13.50;15.50
4354;DHT22;11018;51.258;6.806;2023-04-25T14:15:45;13.30;15.40
4354;DHT22;11018;51.258;6.806;2023-04-25T14:18:11;12.80;16.40
4354;DHT22;11018;51.258;6.806;2023-04-25T14:20:37;12.70;17.10
4354;DHT22;11018;51.258;6.806;2023-04-25T14:23:02;12.60;17.70
4354;DHT22;11018;51.258;6.806;2023-04-25T14:25:29;12.40;16.70
4354;DHT22;11018;51.258;6.806;2023-04-25T14:27:55;12.00;16.40
4354;DHT22;11018;51.258;6.806;2023-04-25T14:30:21;12.10;16.80
4354;DHT22;11018;51.258;6.806;2023-04-25T14:32:48;12.40;16.40
4354;DHT22;11018;51.258;6.806;2023-04-25T14:35:15;12.30;15.40
4354;DHT22;11018;51.258;6.806;2023-04-25T14:37:40;12.10;16.80
4354;DHT22;11018;51.258;6.806;2023-04-25T14:40:07;11.90;16.30
4354;DHT22;11018;51.258;6.806;2023-04-25T14:42:37;12.10;16.10
4354;DHT22;11018;51.258;6.806;2023-04-25T14:45:04;13.20;15.90
4354;DHT22;11018;51.258;6.806;2023-04-25T14:47:30;14.90;12.50
4354;DHT22;11018;51.258;6.806;2023-04-25T14:49:56;16.50;9.70
4354;DHT22;11018;51.258;6.806;2023-04-25T14:52:22;16.80;7.00
4354;DHT22;11018;51.258;6.806;2023-04-25T14:54:48;15.70;8.30
4354;DHT22;11018;51.258;6.806;2023-04-25T14:57:14;16.00;8.80
4354;DHT22;11018;51.258;6.806;2023-04-25T14:59:39;15.30;9.00
4354;DHT22;11018;51.258;6.806;2023-04-25T15:02:05;14.80;9.10
4354;DHT22;11018;51.258;6.806;2023-04-25T15:04:31;14.10;10.40
4354;DHT22;11018;51.258;6.806;2023-04-25T15:06:56;13.40;11.90
4354;DHT22;11018;51.258;6.806;2023-04-25T15:09:22;12.90;13.00
4354;DHT22;11018;51.258;6.806;2023-04-25T15:11:49;12.60;13.80
4354;DHT22;11018;51.258;6.806;2023-04-25T15:14:19;12.30;11.80
4354;DHT22;11018;51.258;6.806;2023-04-25T15:16:44;12.00;12.30
4354;DHT22;11018;51.258;6.806;2023-04-25T15:19:10;11.90;13.10
4354;DHT22;11018;51.258;6.806;2023-04-25T15:21:36;11.90;13.40
4354;DHT22;11018;51.258;6.806;2023-04-25T15:24:02;12.10;13.30
4354;DHT22;11018;51.258;6.806;2023-04-25T15:26:27;11.90;14.30
4354;DHT22;11018;51.258;6.806;2023-04-25T15:28:53;11.70;15.80
4354;DHT22;11018;51.258;6.806;2023-04-25T15:31:19;11.80;15.90
4354;DHT22;11018;51.258;6.806;2023-04-25T15:33:45;12.60;15.40
4354;DHT22;11018;51.258;6.806;2023-04-25T15:36:10;12.90;13.60
4354;DHT22;11018;51.258;6.806;2023-04-25T15:38:36;12.50;14.10
4354;DHT22;11018;51.258;6.806;2023-04-25T15:41:02;12.00;15.00
4354;DHT22;11018;51.258;6.806;2023-04-25T15:43:28;12.20;15.30
4354;DHT22;11018;51.258;6.806;2023-04-25T15:45:54;12.40;14.80
4354;DHT22;11018;51.258;6.806;2023-04-25T15:48:20;13.10;13.90
4354;DHT22;11018;51.258;6.806;2023-04-25T15:50:45;13.70;12.80
4354;DHT22;11018;51.258;6.806;2023-04-25T15:53:11;13.80;13.00
4354;DHT22;11018;51.258;6.806;2023-04-25T15:55:37;14.10;12.90
4354;DHT22;11018;51.258;6.806;2023-04-25T15:58:03;14.50;11.90